Time,TemperatureF,DewpointF,PressureIn,WindDirection,WindDirectionDegrees,WindSpeedMPH,WindSpeedGustMPH,Humidity,HourlyPrecipIn,Conditions,Clouds,dailyrainin,SolarRadiationWatts/m^2,SoftwareType,DateUTC
2013-02-12 00:02:00,6.6,3.4,29.97,WSW,252,0.0,0.0,86,0.00,,,0.02,0.0,meteohub,2013-02-12 06:02:00,
2013-02-12 00:07:00,6.6,3.4,29.97,WSW,252,0.0,0.0,86,0.00,,,0.00,0.0,meteohub,2013-02-12 06:07:00,
2013-02-12 00:12:00,6.4,3.2,29.97,WSW,252,0.0,0.0,86,0.00,,,0.00,0.0,meteohub,2013-02-12 06:12:00,
2013-02-12 00:17:00,6.4,3.2,29.97,WSW,252,0.0,0.0,86,0.00,,,0.00,0.0,meteohub,2013-02-12 06:17:00,
2013-02-12 00:22:00,6.3,2.7,29.97,WSW,252,0.0,0.0,85,0.00,,,0.00,0.0,meteohub,2013-02-12 06:22:00,
2013-02-12 00:27:00,6.1,2.5,29.96,WSW,252,0.0,0.0,85,0.00,,,0.00,0.0,meteohub,2013-02-12 06:27:00,
2013-02-12 00:32:00,5.7,2.1,29.97,WSW,252,0.0,0.0,85,0.00,,,0.00,0.0,meteohub,2013-02-12 06:32:00,
2013-02-12 00:37:00,5.5,1.9,29.96,WSW,252,0.0,0.0,85,0.00,,,0.00,0.0,meteohub,2013-02-12 06:37:00,
2013-02-12 00:42:00,5.4,1.8,29.97,WSW,252,0.0,0.0,85,0.00,,,0.00,0.0,meteohub,2013-02-12 06:42:00,
2013-02-12 00:48:00,5.4,1.8,29.96,WSW,252,0.0,0.0,85,0.00,,,0.00,0.0,meteohub,2013-02-12 06:48:00,
2013-02-12 00:53:00,5.4,1.8,29.96,WSW,252,0.0,0.0,85,0.00,,,0.00,0.0,meteohub,2013-02-12 06:53:00,
2013-02-12 00:58:00,5.2,1.6,29.96,WSW,252,0.0,0.0,85,0.00,,,0.00,0.0,meteohub,2013-02-12 06:58:00,
2013-02-12 01:03:00,5.0,1.4,29.96,WSW,252,0.0,0.0,85,0.00,,,0.00,0.0,meteohub,2013-02-12 07:03:00,
2013-02-12 01:08:00,4.8,1.2,29.96,WSW,252,0.0,0.0,85,0.00,,,0.00,0.0,meteohub,2013-02-12 07:08:00,
2013-02-12 01:13:00,4.6,1.2,29.96,WSW,252,0.0,0.0,85,0.00,,,0.00,0.0,meteohub,2013-02-12 07:13:00,
2013-02-12 01:18:00,4.8,1.2,29.96,West,265,0.0,0.0,85,0.00,,,0.00,0.0,meteohub,2013-02-12 07:18:00,
2013-02-12 01:23:00,5.5,2.5,29.95,WSW,246,0.0,5.0,87,0.00,,,0.00,0.0,meteohub,2013-02-12 07:23:00,
2013-02-12 01:28:00,6.3,3.2,29.95,SW,225,0.0,5.0,87,0.00,,,0.00,0.0,meteohub,2013-02-12 07:28:00,
2013-02-12 01:33:00,6.4,3.4,29.95,WSW,247,0.0,5.0,87,0.00,,,0.00,0.0,meteohub,2013-02-12 07:33:00,
2013-02-12 01:38:00,6.8,3.7,29.95,WSW,247,0.0,5.0,87,0.00,,,0.00,0.0,meteohub,2013-02-12 07:38:00,
2013-02-12 01:43:00,7.0,3.9,29.94,WSW,246,0.0,5.0,87,0.00,,,0.00,0.0,meteohub,2013-02-12 07:43:00,
2013-02-12 01:48:00,7.3,4.3,29.94,WSW,246,0.0,5.0,87,0.00,,,0.00,0.0,meteohub,2013-02-12 07:48:00,
2013-02-12 01:53:00,7.7,4.8,29.94,SW,217,0.0,0.0,88,0.00,,,0.00,0.0,meteohub,2013-02-12 07:53:00,
2013-02-12 01:58:00,8.1,5.2,29.94,SW,229,0.0,0.0,88,0.00,,,0.00,0.0,meteohub,2013-02-12 07:58:00,
2013-02-12 02:04:00,8.4,5.5,29.94,SW,229,0.0,7.0,88,0.00,,,0.00,0.0,meteohub,2013-02-12 08:04:00,
2013-02-12 02:09:00,8.8,5.9,29.94,SSW,211,0.0,7.0,88,0.00,,,0.00,0.0,meteohub,2013-02-12 08:09:00,
2013-02-12 02:14:00,9.1,6.3,29.94,SSW,211,0.0,7.0,88,0.00,,,0.00,0.0,meteohub,2013-02-12 08:14:00,
2013-02-12 02:19:00,9.5,6.6,29.94,SW,224,0.0,5.0,88,0.00,,,0.00,0.0,meteohub,2013-02-12 08:19:00,
2013-02-12 02:24:00,9.7,6.8,29.94,SW,233,0.0,10.0,88,0.00,,,0.00,0.0,meteohub,2013-02-12 08:24:00,
2013-02-12 02:29:00,9.9,6.8,29.94,SW,232,0.0,10.0,87,0.00,,,0.00,0.0,meteohub,2013-02-12 08:29:00,
2013-02-12 02:34:00,10.0,7.0,29.94,SW,228,0.0,7.0,87,0.00,,,0.00,0.0,meteohub,2013-02-12 08:34:00,
2013-02-12 02:39:00,10.2,7.2,29.94,SSE,161,0.0,5.0,87,0.00,,,0.00,0.0,meteohub,2013-02-12 08:39:00,
2013-02-12 02:44:00,10.4,7.3,29.94,South,178,0.0,5.0,87,0.00,,,0.00,0.0,meteohub,2013-02-12 08:44:00,
2013-02-12 02:49:00,10.8,7.9,29.94,SW,231,0.0,5.0,88,0.00,,,0.00,0.0,meteohub,2013-02-12 08:49:00,
2013-02-12 02:54:00,10.9,7.9,29.93,SW,230,0.0,5.0,87,0.00,,,0.00,0.0,meteohub,2013-02-12 08:54:00,
2013-02-12 02:59:00,10.9,7.9,29.93,SSW,193,0.0,5.0,87,0.00,,,0.00,0.0,meteohub,2013-02-12 08:59:00,
2013-02-12 03:04:00,11.1,8.2,29.93,SSW,193,0.0,5.0,88,0.00,,,0.00,0.0,meteohub,2013-02-12 09:04:00,
2013-02-12 03:09:00,11.3,8.4,29.92,SW,219,0.0,5.0,88,0.00,,,0.00,0.0,meteohub,2013-02-12 09:09:00,
2013-02-12 03:14:00,11.3,8.2,29.92,SW,219,0.0,5.0,87,0.00,,,0.00,0.0,meteohub,2013-02-12 09:14:00,
2013-02-12 03:19:00,11.5,8.4,29.92,SW,219,0.0,5.0,87,0.00,,,0.00,0.0,meteohub,2013-02-12 09:19:00,
2013-02-12 03:25:00,11.7,8.6,29.92,SW,219,0.0,0.0,87,0.00,,,0.00,0.0,meteohub,2013-02-12 09:25:00,
2013-02-12 03:30:00,11.7,8.6,29.92,SW,219,0.0,0.0,87,0.00,,,0.00,0.0,meteohub,2013-02-12 09:30:00,
2013-02-12 03:35:00,11.8,9.0,29.92,SW,219,0.0,0.0,88,0.00,,,0.00,0.0,meteohub,2013-02-12 09:35:00,
2013-02-12 03:40:00,12.0,9.1,29.92,SW,219,0.0,0.0,88,0.00,,,0.00,0.0,meteohub,2013-02-12 09:40:00,
2013-02-12 03:45:00,12.0,9.1,29.92,SW,219,0.0,0.0,88,0.00,,,0.00,0.0,meteohub,2013-02-12 09:45:00,
2013-02-12 03:50:00,12.2,9.3,29.91,SW,219,0.0,2.0,88,0.00,,,0.00,0.0,meteohub,2013-02-12 09:50:00,
2013-02-12 03:55:00,12.4,9.5,29.91,SSE,152,0.0,2.0,88,0.00,,,0.00,0.0,meteohub,2013-02-12 09:55:00,
2013-02-12 04:00:00,12.6,9.7,29.91,SSE,152,0.0,0.0,88,0.00,,,0.00,0.0,meteohub,2013-02-12 10:00:00,
2013-02-12 04:05:00,12.6,9.7,29.91,SSE,152,0.0,0.0,88,0.00,,,0.00,0.0,meteohub,2013-02-12 10:05:00,
2013-02-12 04:10:00,12.6,9.7,29.90,SSE,152,0.0,0.0,88,0.00,,,0.00,0.0,meteohub,2013-02-12 10:10:00,
2013-02-12 04:15:00,12.7,9.9,29.90,South,187,0.0,2.0,88,0.00,,,0.00,0.0,meteohub,2013-02-12 10:15:00,
2013-02-12 04:20:00,12.9,10.0,29.91,South,187,0.0,7.0,88,0.00,,,0.00,0.0,meteohub,2013-02-12 10:20:00,
2013-02-12 04:25:00,13.3,10.4,29.90,SSW,213,0.0,7.0,88,0.00,,,0.00,0.0,meteohub,2013-02-12 10:25:00,
2013-02-12 04:30:00,13.3,10.4,29.90,SSW,205,0.0,5.0,88,0.00,,,0.00,0.0,meteohub,2013-02-12 10:30:00,
2013-02-12 04:35:00,13.5,10.6,29.91,SSW,205,0.0,5.0,88,0.00,,,0.00,0.0,meteohub,2013-02-12 10:35:00,
2013-02-12 04:40:00,13.6,10.8,29.91,SSW,205,0.0,5.0,88,0.00,,,0.00,0.0,meteohub,2013-02-12 10:40:00,
2013-02-12 04:46:00,13.6,10.8,29.91,South,182,0.0,10.0,88,0.00,,,0.00,0.0,meteohub,2013-02-12 10:46:00,
2013-02-12 04:51:00,13.8,10.9,29.90,South,182,0.0,10.0,88,0.00,,,0.00,0.0,meteohub,2013-02-12 10:51:00,
2013-02-12 04:56:00,13.8,10.9,29.90,SSE,150,0.0,10.0,88,0.00,,,0.00,0.0,meteohub,2013-02-12 10:56:00,
2013-02-12 05:01:00,13.8,10.9,29.90,SSE,153,0.0,5.0,88,0.00,,,0.00,0.0,meteohub,2013-02-12 11:01:00,
2013-02-12 05:06:00,13.8,10.9,29.90,South,189,0.0,2.0,88,0.00,,,0.00,0.0,meteohub,2013-02-12 11:06:00,
2013-02-12 05:11:00,13.8,10.8,29.90,South,189,0.0,7.0,87,0.00,,,0.00,0.0,meteohub,2013-02-12 11:11:00,
2013-02-12 05:16:00,13.6,10.6,29.90,South,189,0.0,7.0,87,0.00,,,0.00,0.0,meteohub,2013-02-12 11:16:00,
2013-02-12 05:21:00,13.5,10.4,29.89,South,187,0.0,0.0,87,0.00,,,0.00,0.0,meteohub,2013-02-12 11:21:00,
2013-02-12 05:26:00,13.3,10.2,29.89,SSW,205,0.0,7.0,87,0.00,,,0.00,0.0,meteohub,2013-02-12 11:26:00,
2013-02-12 05:31:00,12.9,9.9,29.89,SSW,205,0.0,7.0,87,0.00,,,0.00,0.0,meteohub,2013-02-12 11:31:00,
2013-02-12 05:36:00,12.9,9.9,29.89,SSW,201,0.0,7.0,87,0.00,,,0.00,0.0,meteohub,2013-02-12 11:36:00,
2013-02-12 05:41:00,12.7,9.7,29.89,SSW,200,0.0,7.0,87,0.00,,,0.00,0.0,meteohub,2013-02-12 11:41:00,
2013-02-12 05:46:00,12.7,9.7,29.89,South,189,0.0,7.0,87,0.00,,,0.00,0.0,meteohub,2013-02-12 11:46:00,
2013-02-12 05:51:00,12.6,9.5,29.89,SSE,161,0.0,5.0,87,0.00,,,0.00,0.0,meteohub,2013-02-12 11:51:00,
2013-02-12 05:56:00,12.6,9.5,29.88,SE,132,0.0,5.0,87,0.00,,,0.00,0.0,meteohub,2013-02-12 11:56:00,
2013-02-12 06:01:00,12.4,9.3,29.88,South,186,0.0,7.0,87,0.00,,,0.00,0.0,meteohub,2013-02-12 12:01:00,
2013-02-12 06:07:00,12.4,9.3,29.88,SSE,159,5.0,10.0,87,0.00,,,0.00,0.0,meteohub,2013-02-12 12:07:00,
2013-02-12 06:12:00,12.4,9.3,29.88,SSW,202,5.0,15.0,87,0.00,,,0.00,0.0,meteohub,2013-02-12 12:12:00,
2013-02-12 06:17:00,12.6,9.7,29.88,SSW,192,5.0,15.0,88,0.00,,,0.00,0.0,meteohub,2013-02-12 12:17:00,
2013-02-12 06:22:00,12.6,9.7,29.88,SSE,160,0.0,15.0,88,0.00,,,0.00,0.0,meteohub,2013-02-12 12:22:00,
2013-02-12 06:27:00,12.6,9.7,29.87,South,175,0.0,10.0,88,0.00,,,0.00,0.0,meteohub,2013-02-12 12:27:00,
2013-02-12 06:32:00,12.7,9.9,29.87,SE,142,0.0,12.0,88,0.00,,,0.00,0.0,meteohub,2013-02-12 12:32:00,
2013-02-12 06:37:00,12.7,9.9,29.87,South,190,5.0,12.0,88,0.00,,,0.00,0.0,meteohub,2013-02-12 12:37:00,
2013-02-12 06:42:00,12.9,10.0,29.87,South,184,0.0,12.0,88,0.00,,,0.00,0.0,meteohub,2013-02-12 12:42:00,
2013-02-12 06:47:00,13.1,10.2,29.86,South,181,7.0,12.0,88,0.00,,,0.00,0.0,meteohub,2013-02-12 12:47:00,
2013-02-12 06:52:00,13.3,10.4,29.87,SSW,198,5.0,12.0,88,0.00,,,0.00,0.0,meteohub,2013-02-12 12:52:00,
2013-02-12 06:57:00,13.5,10.6,29.86,ESE,117,0.0,12.0,88,0.00,,,0.00,0.0,meteohub,2013-02-12 12:57:00,
2013-02-12 07:02:00,13.6,10.8,29.86,SSW,202,7.0,20.0,88,0.00,,,0.00,0.0,meteohub,2013-02-12 13:02:00,
2013-02-12 07:07:00,13.8,10.9,29.86,SSW,205,7.0,20.0,88,0.00,,,0.00,0.0,meteohub,2013-02-12 13:07:00,
2013-02-12 07:12:00,13.8,10.9,29.86,SSW,193,10.0,20.0,88,0.00,,,0.00,0.0,meteohub,2013-02-12 13:12:00,
2013-02-12 07:17:00,14.0,11.1,29.86,SSW,198,0.0,15.0,88,0.00,,,0.00,5.0,meteohub,2013-02-12 13:17:00,
2013-02-12 07:22:00,14.2,11.3,29.86,SSW,192,10.0,15.0,88,0.00,,,0.00,9.0,meteohub,2013-02-12 13:22:00,
2013-02-12 07:27:00,14.2,11.3,29.86,SSW,200,10.0,17.0,88,0.00,,,0.00,9.0,meteohub,2013-02-12 13:27:00,
2013-02-12 07:32:00,14.4,11.5,29.86,SSW,193,0.0,17.0,88,0.00,,,0.00,11.0,meteohub,2013-02-12 13:32:00,
2013-02-12 07:37:00,14.4,11.5,29.86,SW,219,7.0,17.0,88,0.00,,,0.00,16.0,meteohub,2013-02-12 13:37:00,
2013-02-12 07:42:00,14.4,11.5,29.86,SSW,201,7.0,17.0,88,0.00,,,0.00,23.0,meteohub,2013-02-12 13:42:00,
2013-02-12 07:47:00,14.5,11.7,29.86,SSW,206,0.0,22.0,88,0.00,,,0.00,26.0,meteohub,2013-02-12 13:47:00,
2013-02-12 07:52:00,14.5,11.7,29.85,SSW,208,7.0,22.0,88,0.00,,,0.00,35.0,meteohub,2013-02-12 13:52:00,
2013-02-12 07:57:00,14.7,11.8,29.86,South,186,12.0,22.0,88,0.00,,,0.00,44.0,meteohub,2013-02-12 13:57:00,
2013-02-12 08:02:00,14.7,11.8,29.85,SSW,198,2.0,17.0,88,0.00,,,0.00,60.0,meteohub,2013-02-12 14:02:00,
2013-02-12 08:07:00,15.1,12.2,29.85,SSW,198,5.0,17.0,88,0.00,,,0.00,76.0,meteohub,2013-02-12 14:07:00,
2013-02-12 08:13:00,15.3,12.4,29.85,South,176,10.0,20.0,88,0.00,,,0.00,60.0,meteohub,2013-02-12 14:13:00,
2013-02-12 08:18:00,15.4,12.6,29.85,South,184,0.0,20.0,88,0.00,,,0.00,42.0,meteohub,2013-02-12 14:18:00,
2013-02-12 08:23:00,15.4,12.6,29.85,SW,215,0.0,20.0,88,0.00,,,0.00,35.0,meteohub,2013-02-12 14:23:00,
2013-02-12 08:28:00,15.4,12.6,29.85,SSW,196,10.0,20.0,88,0.00,,,0.00,39.0,meteohub,2013-02-12 14:28:00,
2013-02-12 08:33:00,15.6,12.7,29.85,SSW,199,10.0,17.0,88,0.00,,,0.00,51.0,meteohub,2013-02-12 14:33:00,
2013-02-12 08:38:00,15.6,12.7,29.85,SSW,209,10.0,15.0,88,0.00,,,0.00,69.0,meteohub,2013-02-12 14:38:00,
2013-02-12 08:43:00,15.6,12.7,29.85,SSW,192,2.0,25.0,88,0.00,,,0.00,72.0,meteohub,2013-02-12 14:43:00,
2013-02-12 08:48:00,15.8,12.9,29.85,SSW,209,17.0,25.0,88,0.00,,,0.00,81.0,meteohub,2013-02-12 14:48:00,
2013-02-12 08:53:00,16.0,13.1,29.85,SW,220,12.0,25.0,88,0.00,,,0.00,79.0,meteohub,2013-02-12 14:53:00,
2013-02-12 08:58:00,16.0,13.1,29.85,SSW,205,7.0,17.0,88,0.00,,,0.00,77.0,meteohub,2013-02-12 14:58:00,
2013-02-12 09:03:00,16.2,13.3,29.85,South,184,15.0,20.0,88,0.00,,,0.00,100.0,meteohub,2013-02-12 15:03:00,
2013-02-12 09:08:00,16.2,12.9,29.85,South,190,12.0,22.0,87,0.00,,,0.00,120.0,meteohub,2013-02-12 15:08:00,
2013-02-12 09:13:00,16.2,13.3,29.85,South,187,7.0,22.0,88,0.00,,,0.00,213.0,meteohub,2013-02-12 15:13:00,
2013-02-12 09:18:00,16.5,13.6,29.84,SSW,194,7.0,20.0,88,0.00,,,0.00,244.0,meteohub,2013-02-12 15:18:00,
2013-02-12 09:23:00,16.9,14.0,29.84,South,182,10.0,17.0,88,0.00,,,0.00,172.0,meteohub,2013-02-12 15:23:00,
2013-02-12 09:28:00,17.1,14.2,29.84,South,175,12.0,17.0,88,0.00,,,0.00,139.0,meteohub,2013-02-12 15:28:00,
2013-02-12 09:33:00,17.2,14.0,29.85,SSW,201,2.0,17.0,87,0.00,,,0.00,134.0,meteohub,2013-02-12 15:33:00,
2013-02-12 09:39:00,17.4,14.2,29.85,SSE,164,5.0,20.0,87,0.00,,,0.00,197.0,meteohub,2013-02-12 15:39:00,
2013-02-12 09:44:00,17.6,14.4,29.84,SSE,168,7.0,20.0,87,0.00,,,0.00,211.0,meteohub,2013-02-12 15:44:00,
2013-02-12 09:49:00,18.0,14.7,29.85,South,188,0.0,15.0,87,0.00,,,0.00,220.0,meteohub,2013-02-12 15:49:00,
2013-02-12 09:54:00,18.3,15.1,29.85,South,182,0.0,12.0,87,0.00,,,0.00,218.0,meteohub,2013-02-12 15:54:00,
2013-02-12 09:59:00,18.5,15.1,29.84,SSW,202,10.0,12.0,86,0.00,,,0.00,218.0,meteohub,2013-02-12 15:59:00,
2013-02-12 10:04:00,18.7,14.9,29.85,South,190,10.0,28.0,85,0.00,,,0.00,234.0,meteohub,2013-02-12 16:04:00,
2013-02-12 10:09:00,18.9,15.1,29.85,South,181,12.0,28.0,85,0.00,,,0.00,216.0,meteohub,2013-02-12 16:09:00,
2013-02-12 10:14:00,19.0,15.3,29.84,SSE,159,0.0,28.0,85,0.00,,,0.00,209.0,meteohub,2013-02-12 16:14:00,
2013-02-12 10:19:00,19.4,15.4,29.84,SW,215,12.0,22.0,84,0.00,,,0.00,209.0,meteohub,2013-02-12 16:19:00,
2013-02-12 10:24:00,19.6,15.6,29.84,WSW,239,7.0,20.0,84,0.00,,,0.00,214.0,meteohub,2013-02-12 16:24:00,
2013-02-12 10:29:00,19.6,15.6,29.84,SW,218,7.0,20.0,84,0.00,,,0.00,223.0,meteohub,2013-02-12 16:29:00,
2013-02-12 10:34:00,19.8,15.4,29.84,SSW,199,0.0,22.0,83,0.00,,,0.00,204.0,meteohub,2013-02-12 16:34:00,
2013-02-12 10:39:00,19.9,15.6,29.84,SW,226,12.0,22.0,83,0.00,,,0.00,216.0,meteohub,2013-02-12 16:39:00,
2013-02-12 10:44:00,20.1,15.8,29.84,West,264,0.0,22.0,83,0.00,,,0.00,257.0,meteohub,2013-02-12 16:44:00,
2013-02-12 10:50:00,20.3,16.0,29.84,SSW,209,12.0,22.0,83,0.00,,,0.00,406.0,meteohub,2013-02-12 16:50:00,
2013-02-12 10:55:00,20.7,16.3,29.84,SW,221,7.0,22.0,83,0.00,,,0.00,336.0,meteohub,2013-02-12 16:55:00,
2013-02-12 11:00:00,21.0,16.3,29.84,SW,214,15.0,17.0,82,0.00,,,0.00,318.0,meteohub,2013-02-12 17:00:00,
2013-02-12 11:05:00,21.2,16.5,29.84,West,259,0.0,22.0,82,0.00,,,0.00,341.0,meteohub,2013-02-12 17:05:00,
2013-02-12 11:10:00,21.4,16.7,29.83,SSW,202,10.0,22.0,82,0.00,,,0.00,362.0,meteohub,2013-02-12 17:10:00,
2013-02-12 11:15:00,21.7,18.7,29.83,SSW,213,15.0,22.0,88,0.00,,,0.00,316.0,meteohub,2013-02-12 17:15:00,
2013-02-12 11:20:00,21.7,16.9,29.83,SSW,207,7.0,22.0,81,0.00,,,0.00,287.0,meteohub,2013-02-12 17:20:00,
2013-02-12 11:25:00,21.7,16.9,29.83,South,188,12.0,17.0,81,0.00,,,0.00,346.0,meteohub,2013-02-12 17:25:00,
2013-02-12 11:30:00,21.9,17.1,29.83,SW,227,7.0,17.0,81,0.00,,,0.00,330.0,meteohub,2013-02-12 17:30:00,
2013-02-12 11:35:00,22.3,17.4,29.83,South,178,5.0,17.0,81,0.00,,,0.00,469.0,meteohub,2013-02-12 17:35:00,
2013-02-12 11:40:00,22.5,17.2,29.83,SSW,196,17.0,17.0,80,0.00,,,0.00,494.0,meteohub,2013-02-12 17:40:00,
2013-02-12 11:45:00,22.8,17.6,29.83,SSW,197,10.0,17.0,80,0.00,,,0.00,373.0,meteohub,2013-02-12 17:45:00,
2013-02-12 11:50:00,23.2,17.6,29.82,SSW,200,7.0,20.0,79,0.00,,,0.00,327.0,meteohub,2013-02-12 17:50:00,
2013-02-12 11:55:00,23.2,17.6,29.82,SSE,158,5.0,22.0,79,0.00,,,0.00,223.0,meteohub,2013-02-12 17:55:00,
2013-02-12 12:00:00,23.2,17.6,29.83,SSW,199,15.0,22.0,79,0.00,,,0.00,527.0,meteohub,2013-02-12 18:00:00,
2013-02-12 12:05:00,23.5,18.0,29.82,SW,231,5.0,22.0,79,0.00,,,0.00,536.0,meteohub,2013-02-12 18:05:00,
2013-02-12 12:10:00,23.7,18.0,29.82,SSW,196,15.0,22.0,78,0.00,,,0.00,538.0,meteohub,2013-02-12 18:10:00,
2013-02-12 12:15:00,24.1,18.5,29.81,WSW,240,0.0,22.0,79,0.00,,,0.00,536.0,meteohub,2013-02-12 18:15:00,
2013-02-12 12:20:00,24.4,18.5,29.81,WNW,292,10.0,22.0,78,0.00,,,0.00,536.0,meteohub,2013-02-12 18:20:00,
2013-02-12 12:26:00,24.8,18.9,29.81,South,169,2.0,17.0,78,0.00,,,0.00,540.0,meteohub,2013-02-12 18:26:00,
2013-02-12 12:31:00,25.2,18.7,29.81,West,263,5.0,20.0,76,0.00,,,0.00,540.0,meteohub,2013-02-12 18:31:00,
2013-02-12 12:36:00,25.2,19.0,29.80,SW,226,7.0,20.0,77,0.00,,,0.00,540.0,meteohub,2013-02-12 18:36:00,
2013-02-12 12:41:00,25.3,18.9,29.80,SSW,212,20.0,20.0,76,0.00,,,0.00,540.0,meteohub,2013-02-12 18:41:00,
2013-02-12 12:46:00,25.3,18.9,29.80,SSW,207,2.0,22.0,76,0.00,,,0.00,540.0,meteohub,2013-02-12 18:46:00,
2013-02-12 12:51:00,25.5,19.0,29.79,West,280,12.0,22.0,76,0.00,,,0.00,538.0,meteohub,2013-02-12 18:51:00,
2013-02-12 12:56:00,25.9,19.4,29.79,SW,225,15.0,22.0,76,0.00,,,0.00,538.0,meteohub,2013-02-12 18:56:00,
2013-02-12 13:01:00,26.1,19.2,29.79,SSW,196,0.0,20.0,75,0.00,,,0.00,534.0,meteohub,2013-02-12 19:01:00,
2013-02-12 13:06:00,26.4,19.6,29.79,South,190,20.0,20.0,75,0.00,,,0.00,533.0,meteohub,2013-02-12 19:06:00,
2013-02-12 13:11:00,26.6,19.8,29.80,SW,218,10.0,20.0,75,0.00,,,0.00,529.0,meteohub,2013-02-12 19:11:00,
2013-02-12 13:16:00,26.8,19.9,29.79,WSW,239,7.0,20.0,75,0.00,,,0.00,526.0,meteohub,2013-02-12 19:16:00,
2013-02-12 13:21:00,26.8,19.6,29.79,SW,227,0.0,20.0,74,0.00,,,0.00,524.0,meteohub,2013-02-12 19:21:00,
2013-02-12 13:26:00,27.1,20.3,29.80,SW,236,0.0,20.0,75,0.00,,,0.00,519.0,meteohub,2013-02-12 19:26:00,
2013-02-12 13:31:00,27.3,20.5,29.79,SW,234,10.0,17.0,75,0.00,,,0.00,513.0,meteohub,2013-02-12 19:31:00,
2013-02-12 13:36:00,27.7,20.1,29.79,South,187,12.0,17.0,73,0.00,,,0.00,512.0,meteohub,2013-02-12 19:36:00,
2013-02-12 13:41:00,27.9,20.3,29.79,SW,217,15.0,22.0,73,0.00,,,0.00,508.0,meteohub,2013-02-12 19:41:00,
2013-02-12 13:46:00,28.0,20.8,29.78,WSW,241,5.0,22.0,74,0.00,,,0.00,501.0,meteohub,2013-02-12 19:46:00,
2013-02-12 13:51:00,28.6,20.7,29.78,WSW,240,0.0,20.0,72,0.00,,,0.00,497.0,meteohub,2013-02-12 19:51:00,
2013-02-12 13:56:00,28.8,20.8,29.78,SW,233,0.0,17.0,72,0.00,,,0.00,489.0,meteohub,2013-02-12 19:56:00,
2013-02-12 14:02:00,28.9,21.0,29.78,SW,231,7.0,22.0,72,0.00,,,0.00,482.0,meteohub,2013-02-12 20:02:00,
2013-02-12 14:06:00,29.1,21.2,29.78,WNW,292,0.0,22.0,72,0.00,,,0.00,475.0,meteohub,2013-02-12 20:06:00,
2013-02-12 14:12:00,29.3,21.0,29.78,SSW,199,0.0,22.0,71,0.00,,,0.00,469.0,meteohub,2013-02-12 20:12:00,
2013-02-12 14:17:00,29.7,21.0,29.78,SW,221,15.0,22.0,70,0.00,,,0.00,462.0,meteohub,2013-02-12 20:17:00,
2013-02-12 14:22:00,29.7,21.0,29.78,South,185,15.0,22.0,70,0.00,,,0.00,455.0,meteohub,2013-02-12 20:22:00,
2013-02-12 14:27:00,29.7,20.7,29.78,SW,221,17.0,22.0,69,0.00,,,0.00,446.0,meteohub,2013-02-12 20:27:00,
2013-02-12 14:32:00,29.7,20.7,29.78,SSW,194,7.0,22.0,69,0.00,,,0.00,439.0,meteohub,2013-02-12 20:32:00,
2013-02-12 14:37:00,30.0,21.4,29.78,SSW,202,15.0,25.0,70,0.00,,,0.00,429.0,meteohub,2013-02-12 20:37:00,
2013-02-12 14:42:00,30.2,21.2,29.78,SW,225,12.0,25.0,69,0.00,,,0.00,325.0,meteohub,2013-02-12 20:42:00,
2013-02-12 14:47:00,30.6,22.3,29.78,SW,215,10.0,25.0,71,0.00,,,0.00,264.0,meteohub,2013-02-12 20:47:00,
2013-02-12 14:52:00,30.7,22.1,29.78,NW,309,2.0,25.0,70,0.00,,,0.00,285.0,meteohub,2013-02-12 20:52:00,
2013-02-12 14:57:00,30.7,22.5,29.78,SW,235,15.0,25.0,71,0.00,,,0.00,279.0,meteohub,2013-02-12 20:57:00,
2013-02-12 15:02:00,30.7,22.1,29.78,WNW,296,0.0,25.0,70,0.00,,,0.00,255.0,meteohub,2013-02-12 21:02:00,
2013-02-12 15:07:00,30.7,21.7,29.78,SW,219,0.0,28.0,69,0.00,,,0.00,306.0,meteohub,2013-02-12 21:07:00,
2013-02-12 15:12:00,30.7,22.1,29.79,WNW,300,0.0,28.0,70,0.00,,,0.00,362.0,meteohub,2013-02-12 21:12:00,
2013-02-12 15:17:00,30.7,22.1,29.79,WNW,287,15.0,28.0,70,0.00,,,0.00,348.0,meteohub,2013-02-12 21:17:00,
2013-02-12 15:22:00,30.6,23.5,29.79,West,279,0.0,22.0,75,0.00,,,0.00,338.0,meteohub,2013-02-12 21:22:00,
2013-02-12 15:27:00,30.6,21.6,29.79,West,259,22.0,22.0,69,0.00,,,0.00,327.0,meteohub,2013-02-12 21:27:00,
2013-02-12 15:32:00,30.4,21.4,29.79,West,275,0.0,22.0,69,0.00,,,0.00,274.0,meteohub,2013-02-12 21:32:00,
2013-02-12 15:37:00,30.4,22.1,29.79,West,262,0.0,22.0,71,0.00,,,0.00,323.0,meteohub,2013-02-12 21:37:00,
2013-02-12 15:43:00,30.4,22.1,29.79,West,268,0.0,22.0,71,0.00,,,0.00,323.0,meteohub,2013-02-12 21:43:00,
2013-02-12 15:48:00,30.6,22.3,29.79,SW,227,12.0,17.0,71,0.00,,,0.00,295.0,meteohub,2013-02-12 21:48:00,
2013-02-12 15:53:00,30.7,21.4,29.79,WSW,247,7.0,17.0,68,0.00,,,0.00,265.0,meteohub,2013-02-12 21:53:00,
2013-02-12 15:58:00,30.7,21.4,29.78,SSW,194,17.0,20.0,68,0.00,,,0.00,232.0,meteohub,2013-02-12 21:58:00,
2013-02-12 16:03:00,30.6,21.6,29.78,SE,144,0.0,20.0,69,0.00,,,0.00,141.0,meteohub,2013-02-12 22:03:00,
2013-02-12 16:08:00,30.4,21.4,29.78,WSW,242,0.0,20.0,69,0.00,,,0.00,102.0,meteohub,2013-02-12 22:08:00,
2013-02-12 16:13:00,30.0,20.7,29.78,SSW,205,17.0,20.0,68,0.00,,,0.00,132.0,meteohub,2013-02-12 22:13:00,
2013-02-12 16:18:00,29.8,20.8,29.78,WSW,257,7.0,20.0,69,0.00,,,0.00,69.0,meteohub,2013-02-12 22:18:00,
2013-02-12 16:23:00,29.5,20.7,29.78,SSW,200,0.0,20.0,69,0.00,,,0.00,97.0,meteohub,2013-02-12 22:23:00,
2013-02-12 16:28:00,29.3,20.7,29.78,SW,229,0.0,17.0,70,0.00,,,0.00,90.0,meteohub,2013-02-12 22:28:00,
2013-02-12 16:33:00,29.1,20.5,29.78,SSW,213,17.0,17.0,70,0.00,,,0.00,95.0,meteohub,2013-02-12 22:33:00,
2013-02-12 16:38:00,29.1,20.5,29.78,WSW,252,0.0,17.0,70,0.00,,,0.00,93.0,meteohub,2013-02-12 22:38:00,
2013-02-12 16:43:00,29.3,21.0,29.78,WSW,241,7.0,17.0,71,0.00,,,0.00,97.0,meteohub,2013-02-12 22:43:00,
2013-02-12 16:48:00,29.7,21.4,29.78,WSW,237,0.0,17.0,71,0.00,,,0.00,97.0,meteohub,2013-02-12 22:48:00,
2013-02-12 16:53:00,29.5,20.8,29.78,South,172,12.0,15.0,70,0.00,,,0.00,72.0,meteohub,2013-02-12 22:53:00,
2013-02-12 16:58:00,29.1,20.5,29.78,WSW,257,5.0,17.0,70,0.00,,,0.00,42.0,meteohub,2013-02-12 22:58:00,
2013-02-12 17:04:00,28.9,20.7,29.78,SSW,197,0.0,17.0,71,0.00,,,0.00,37.0,meteohub,2013-02-12 23:04:00,
2013-02-12 17:09:00,28.8,20.3,29.78,SW,219,5.0,17.0,70,0.00,,,0.00,23.0,meteohub,2013-02-12 23:09:00,
2013-02-12 17:14:00,28.4,20.1,29.78,SW,224,2.0,15.0,71,0.00,,,0.00,23.0,meteohub,2013-02-12 23:14:00,
2013-02-12 17:19:00,28.2,20.3,29.78,SW,219,0.0,12.0,72,0.00,,,0.00,21.0,meteohub,2013-02-12 23:19:00,
2013-02-12 17:24:00,28.0,20.1,29.78,SW,234,10.0,12.0,72,0.00,,,0.00,16.0,meteohub,2013-02-12 23:24:00,
2013-02-12 17:29:00,27.9,20.3,29.78,WSW,244,5.0,15.0,73,0.00,,,0.00,12.0,meteohub,2013-02-12 23:29:00,
2013-02-12 17:34:00,27.7,20.1,29.78,SW,232,0.0,15.0,73,0.00,,,0.00,9.0,meteohub,2013-02-12 23:34:00,
2013-02-12 17:39:00,27.7,20.1,29.78,SW,234,0.0,15.0,73,0.00,,,0.00,5.0,meteohub,2013-02-12 23:39:00,
2013-02-12 17:44:00,27.5,19.9,29.78,SW,229,0.0,12.0,73,0.00,,,0.00,0.0,meteohub,2013-02-12 23:44:00,
2013-02-12 17:49:00,27.3,19.8,29.78,WSW,238,5.0,10.0,73,0.00,,,0.00,0.0,meteohub,2013-02-12 23:49:00,
2013-02-12 17:54:00,27.1,19.9,29.78,WSW,242,7.0,12.0,74,0.00,,,0.00,0.0,meteohub,2013-02-12 23:54:00,
2013-02-12 17:59:00,27.0,19.8,29.78,SW,227,12.0,12.0,74,0.00,,,0.00,0.0,meteohub,2013-02-12 23:59:00,
2013-02-12 18:04:00,26.8,19.9,29.79,SW,235,5.0,17.0,75,0.00,,,0.00,0.0,meteohub,2013-02-13 00:04:00,
2013-02-12 18:09:00,26.8,19.6,29.79,SSW,202,10.0,17.0,74,0.00,,,0.00,0.0,meteohub,2013-02-13 00:09:00,
2013-02-12 18:14:00,26.8,19.9,29.79,SW,221,0.0,20.0,75,0.00,,,0.00,0.0,meteohub,2013-02-13 00:14:00,
2013-02-12 18:19:00,26.4,19.6,29.79,SSW,204,0.0,20.0,75,0.00,,,0.00,0.0,meteohub,2013-02-13 00:19:00,
2013-02-12 18:25:00,26.4,19.6,29.80,West,278,17.0,20.0,75,0.00,,,0.00,0.0,meteohub,2013-02-13 00:25:00,
2013-02-12 18:30:00,26.4,19.6,29.79,WSW,237,7.0,17.0,75,0.00,,,0.00,0.0,meteohub,2013-02-13 00:30:00,
2013-02-12 18:35:00,26.2,19.4,29.79,WSW,246,10.0,20.0,75,0.00,,,0.00,0.0,meteohub,2013-02-13 00:35:00,
2013-02-12 18:40:00,26.1,19.2,29.79,WSW,241,10.0,25.0,75,0.00,,,0.00,0.0,meteohub,2013-02-13 00:40:00,
2013-02-12 18:45:00,26.1,19.2,29.79,SW,226,10.0,25.0,75,0.00,,,0.00,0.0,meteohub,2013-02-13 00:45:00,
2013-02-12 18:50:00,26.1,19.2,29.78,SW,224,7.0,22.0,75,0.00,,,0.00,0.0,meteohub,2013-02-13 00:50:00,
2013-02-12 18:55:00,25.9,19.0,29.78,SW,233,7.0,25.0,75,0.00,,,0.00,0.0,meteohub,2013-02-13 00:55:00,
2013-02-12 19:00:00,25.9,19.0,29.79,SW,216,12.0,25.0,75,0.00,,,0.00,0.0,meteohub,2013-02-13 01:00:00,
2013-02-12 19:05:00,25.9,19.4,29.79,WSW,252,0.0,25.0,76,0.00,,,0.00,0.0,meteohub,2013-02-13 01:05:00,
2013-02-12 19:10:00,25.7,18.9,29.78,WSW,253,10.0,25.0,75,0.00,,,0.00,0.0,meteohub,2013-02-13 01:10:00,
2013-02-12 19:15:00,25.5,19.0,29.78,WSW,254,7.0,25.0,76,0.00,,,0.00,0.0,meteohub,2013-02-13 01:15:00,
2013-02-12 19:20:00,25.5,19.0,29.78,SSW,198,0.0,17.0,76,0.00,,,0.00,0.0,meteohub,2013-02-13 01:20:00,
2013-02-12 19:25:00,25.5,19.0,29.78,WSW,245,10.0,17.0,76,0.00,,,0.00,0.0,meteohub,2013-02-13 01:25:00,
2013-02-12 19:30:00,25.3,18.9,29.78,SW,226,0.0,22.0,76,0.00,,,0.00,0.0,meteohub,2013-02-13 01:30:00,
2013-02-12 19:36:00,25.3,18.9,29.78,SSW,203,7.0,22.0,76,0.00,,,0.00,0.0,meteohub,2013-02-13 01:36:00,
2013-02-12 19:41:00,25.2,18.7,29.78,WNW,292,2.0,20.0,76,0.00,,,0.00,0.0,meteohub,2013-02-13 01:41:00,
2013-02-12 19:46:00,25.2,18.7,29.78,WNW,283,7.0,20.0,76,0.00,,,0.00,0.0,meteohub,2013-02-13 01:46:00,
2013-02-12 19:51:00,25.0,18.5,29.77,West,262,5.0,17.0,76,0.00,,,0.00,0.0,meteohub,2013-02-13 01:51:00,
2013-02-12 19:56:00,25.0,18.5,29.77,WSW,252,0.0,20.0,76,0.00,,,0.00,0.0,meteohub,2013-02-13 01:56:00,
2013-02-12 20:01:00,24.8,18.3,29.77,SW,224,10.0,20.0,76,0.00,,,0.00,0.0,meteohub,2013-02-13 02:01:00,
2013-02-12 20:06:00,24.8,18.7,29.77,WSW,247,0.0,20.0,77,0.00,,,0.00,0.0,meteohub,2013-02-13 02:06:00,
2013-02-12 20:11:00,24.8,18.7,29.78,SW,227,10.0,17.0,77,0.00,,,0.00,0.0,meteohub,2013-02-13 02:11:00,
2013-02-12 20:16:00,24.6,18.5,29.78,SW,233,5.0,17.0,77,0.00,,,0.00,0.0,meteohub,2013-02-13 02:16:00,
2013-02-12 20:21:00,24.6,18.5,29.78,West,267,0.0,17.0,77,0.00,,,0.00,0.0,meteohub,2013-02-13 02:21:00,
2013-02-12 20:26:00,24.6,18.5,29.78,WNW,292,0.0,17.0,77,0.00,,,0.00,0.0,meteohub,2013-02-13 02:26:00,
2013-02-12 20:31:00,24.4,18.5,29.78,West,273,0.0,15.0,78,0.00,,,0.00,0.0,meteohub,2013-02-13 02:31:00,
2013-02-12 20:36:00,24.4,18.3,29.78,SW,225,0.0,17.0,77,0.00,,,0.00,0.0,meteohub,2013-02-13 02:36:00,
2013-02-12 20:41:00,24.4,18.3,29.78,SW,215,10.0,17.0,77,0.00,,,0.00,0.0,meteohub,2013-02-13 02:41:00,
2013-02-12 20:46:00,24.3,18.1,29.78,WSW,248,0.0,17.0,77,0.00,,,0.00,0.0,meteohub,2013-02-13 02:46:00,
2013-02-12 20:51:00,24.3,18.1,29.77,West,267,12.0,15.0,77,0.00,,,0.00,0.0,meteohub,2013-02-13 02:51:00,
2013-02-12 20:56:00,24.3,18.1,29.77,WSW,237,12.0,15.0,77,0.00,,,0.00,0.0,meteohub,2013-02-13 02:56:00,
2013-02-12 21:01:00,24.3,18.1,29.77,SW,224,7.0,17.0,77,0.00,,,0.00,0.0,meteohub,2013-02-13 03:01:00,
2013-02-12 21:06:00,24.3,18.3,29.77,West,267,0.0,17.0,78,0.00,,,0.00,0.0,meteohub,2013-02-13 03:06:00,
2013-02-12 21:12:00,24.1,18.1,29.77,WSW,258,2.0,17.0,78,0.00,,,0.00,0.0,meteohub,2013-02-13 03:12:00,
2013-02-12 21:17:00,24.1,18.1,29.77,SW,224,0.0,12.0,78,0.00,,,0.00,0.0,meteohub,2013-02-13 03:17:00,
2013-02-12 21:22:00,24.1,18.1,29.77,WNW,285,0.0,12.0,78,0.00,,,0.00,0.0,meteohub,2013-02-13 03:22:00,
2013-02-12 21:27:00,24.1,18.1,29.77,West,273,0.0,17.0,78,0.00,,,0.00,0.0,meteohub,2013-02-13 03:27:00,
2013-02-12 21:32:00,23.7,18.1,29.77,WNW,284,0.0,17.0,79,0.00,,,0.00,0.0,meteohub,2013-02-13 03:32:00,
2013-02-12 21:37:00,23.7,18.1,29.77,WSW,258,15.0,17.0,79,0.00,,,0.00,0.0,meteohub,2013-02-13 03:37:00,
2013-02-12 21:42:00,23.7,18.1,29.77,WSW,238,0.0,17.0,79,0.00,,,0.00,0.0,meteohub,2013-02-13 03:42:00,
2013-02-12 21:47:00,23.7,18.1,29.77,WSW,255,5.0,17.0,79,0.00,,,0.00,0.0,meteohub,2013-02-13 03:47:00,
2013-02-12 21:52:00,23.5,18.3,29.78,WSW,254,10.0,17.0,80,0.00,,,0.00,0.0,meteohub,2013-02-13 03:52:00,
2013-02-12 21:57:00,23.5,18.3,29.78,WNW,286,2.0,17.0,80,0.00,,,0.00,0.0,meteohub,2013-02-13 03:57:00,
2013-02-12 22:02:00,23.5,18.3,29.77,SW,227,12.0,20.0,80,0.00,,,0.00,0.0,meteohub,2013-02-13 04:02:00,
2013-02-12 22:07:00,23.5,18.3,29.77,West,261,7.0,20.0,80,0.00,,,0.00,0.0,meteohub,2013-02-13 04:07:00,
2013-02-12 22:12:00,23.5,18.3,29.77,SW,226,7.0,20.0,80,0.00,,,0.00,0.0,meteohub,2013-02-13 04:12:00,
2013-02-12 22:17:00,23.4,18.1,29.77,WSW,247,0.0,17.0,80,0.00,,,0.00,0.0,meteohub,2013-02-13 04:17:00,
2013-02-12 22:22:00,23.4,18.3,29.76,West,259,0.0,15.0,81,0.00,,,0.00,0.0,meteohub,2013-02-13 04:22:00,
2013-02-12 22:27:00,23.5,18.5,29.76,WNW,294,0.0,17.0,81,0.00,,,0.00,0.0,meteohub,2013-02-13 04:27:00,
2013-02-12 22:32:00,23.4,18.3,29.76,WSW,247,0.0,17.0,81,0.00,,,0.00,0.0,meteohub,2013-02-13 04:32:00,
2013-02-12 22:37:00,23.4,18.3,29.77,WNW,302,12.0,15.0,81,0.00,,,0.00,0.0,meteohub,2013-02-13 04:37:00,
2013-02-12 22:42:00,23.4,18.3,29.76,WSW,258,0.0,12.0,81,0.00,,,0.00,0.0,meteohub,2013-02-13 04:42:00,
2013-02-12 22:47:00,23.2,18.5,29.77,West,266,0.0,12.0,82,0.00,,,0.00,0.0,meteohub,2013-02-13 04:47:00,
2013-02-12 22:53:00,23.2,18.5,29.76,SW,229,0.0,15.0,82,0.00,,,0.00,0.0,meteohub,2013-02-13 04:53:00,
2013-02-12 22:58:00,23.2,18.5,29.76,WNW,291,0.0,15.0,82,0.00,,,0.00,0.0,meteohub,2013-02-13 04:58:00,
2013-02-12 23:00:00,23.2,18.5,29.76,WSW,246,7.0,15.0,82,0.00,,,0.00,0.0,meteohub,2013-02-13 05:00:00,
2013-02-12 23:01:00,23.2,18.5,29.76,WSW,255,7.0,15.0,82,0.00,,,0.00,0.0,meteohub,2013-02-13 05:01:00,
2013-02-12 23:06:00,23.2,18.5,29.76,West,278,0.0,20.0,82,0.00,,,0.00,0.0,meteohub,2013-02-13 05:06:00,
2013-02-12 23:11:00,23.2,18.5,29.76,WSW,251,0.0,20.0,82,0.00,,,0.00,0.0,meteohub,2013-02-13 05:11:00,
2013-02-12 23:16:00,23.2,18.5,29.76,West,279,0.0,20.0,82,0.00,,,0.00,0.0,meteohub,2013-02-13 05:16:00,
2013-02-12 23:21:00,23.2,18.5,29.75,WNW,284,0.0,15.0,82,0.00,,,0.00,0.0,meteohub,2013-02-13 05:21:00,
2013-02-12 23:27:00,23.2,18.9,29.75,SW,221,0.0,15.0,83,0.00,,,0.00,0.0,meteohub,2013-02-13 05:27:00,
2013-02-12 23:32:00,23.2,18.9,29.75,SW,215,0.0,15.0,83,0.00,,,0.00,0.0,meteohub,2013-02-13 05:32:00,
2013-02-12 23:37:00,23.2,18.9,29.75,West,259,0.0,15.0,83,0.00,,,0.00,0.0,meteohub,2013-02-13 05:37:00,
2013-02-12 23:42:00,23.2,18.9,29.75,SW,228,0.0,15.0,83,0.00,,,0.00,0.0,meteohub,2013-02-13 05:42:00,
2013-02-12 23:47:00,23.2,18.9,29.75,SW,228,0.0,10.0,83,0.00,,,0.00,0.0,meteohub,2013-02-13 05:47:00,
2013-02-12 23:52:00,23.2,18.9,29.75,SW,229,0.0,7.0,83,0.00,,,0.00,0.0,meteohub,2013-02-13 05:52:00,
2013-02-12 23:57:00,23.2,18.9,29.75,SSW,211,0.0,10.0,83,0.00,,,0.00,0.0,meteohub,2013-02-13 05:57:00,